sensor_id;sensor_type;location;lat;lon;timestamp;temperature;humidity
6291;DHT22;3178;48.730;8.990;2023-01-08T00:01:03;5.60;99.90
6291;DHT22;3178;48.730;8.990;2023-01-08T00:03:29;5.60;99.90
6291;DHT22;3178;48.730;8.990;2023-01-08T00:05:59;5.60;99.90
6291;DHT22;3178;48.730;8.990;2023-01-08T00:08:25;5.60;99.90
6291;DHT22;3178;48.730;8.990;2023-01-08T00:10:53;5.60;99.90
6291;DHT22;3178;48.730;8.990;2023-01-08T00:13:20;5.60;99.90
6291;DHT22;3178;48.730;8.990;2023-01-08T00:15:45;5.60;99.90
6291;DHT22;3178;48.730;8.990;2023-01-08T00:18:11;5.60;99.90
6291;DHT22;3178;48.730;8.990;2023-01-08T00:20:40;5.60;99.90
6291;DHT22;3178;48.730;8.990;2023-01-08T00:23:10;5.60;99.90
6291;DHT22;3178;48.730;8.990;2023-01-08T00:25:36;5.60;99.90
6291;DHT22;3178;48.730;8.990;2023-01-08T00:28:01;5.50;99.90
6291;DHT22;3178;48.730;8.990;2023-01-08T00:30:27;5.50;99.90
6291;DHT22;3178;48.730;8.990;2023-01-08T00:32:52;5.50;99.90
6291;DHT22;3178;48.730;8.990;2023-01-08T00:35:18;5.40;99.90
6291;DHT22;3178;48.730;8.990;2023-01-08T00:37:43;5.40;99.90
6291;DHT22;3178;48.730;8.990;2023-01-08T00:40:09;5.40;99.90
6291;DHT22;3178;48.730;8.990;2023-01-08T00:42:35;5.40;99.90
6291;DHT22;3178;48.730;8.990;2023-01-08T00:45:01;5.40;99.90
6291;DHT22;3178;48.730;8.990;2023-01-08T00:47:27;5.40;99.90
6291;DHT22;3178;48.730;8.990;2023-01-08T00:49:52;5.40;99.90
6291;DHT22;3178;48.730;8.990;2023-01-08T00:52:18;5.50;99.90
6291;DHT22;3178;48.730;8.990;2023-01-08T00:54:43;5.40;99.90
6291;DHT22;3178;48.730;8.990;2023-01-08T00:57:09;5.50;99.90
6291;DHT22;3178;48.730;8.990;2023-01-08T00:59:34;5.50;99.90
6291;DHT22;3178;48.730;8.990;2023-01-08T01:02:00;5.50;99.90
6291;DHT22;3178;48.730;8.990;2023-01-08T01:04:25;5.50;99.90
6291;DHT22;3178;48.730;8.990;2023-01-08T01:06:51;5.50;99.90
6291;DHT22;3178;48.730;8.990;2023-01-08T01:09:17;5.40;99.90
6291;DHT22;3178;48.730;8.990;2023-01-08T01:11:42;5.50;99.90
6291;DHT22;3178;48.730;8.990;2023-01-08T01:14:08;5.40;99.90
6291;DHT22;3178;48.730;8.990;2023-01-08T01:16:34;5.40;99.90
6291;DHT22;3178;48.730;8.990;2023-01-08T01:19:00;5.40;99.90
6291;DHT22;3178;48.730;8.990;2023-01-08T01:21:29;5.40;99.90
6291;DHT22;3178;48.730;8.990;2023-01-08T01:23:57;5.30;99.90
6291;DHT22;3178;48.730;8.990;2023-01-08T01:26:24;5.30;99.90
6291;DHT22;3178;48.730;8.990;2023-01-08T01:28:52;5.30;99.90
6291;DHT22;3178;48.730;8.990;2023-01-08T01:31:18;5.30;99.90
6291;DHT22;3178;48.730;8.990;2023-01-08T01:33:44;5.20;99.90
6291;DHT22;3178;48.730;8.990;2023-01-08T01:36:11;5.30;99.90
6291;DHT22;3178;48.730;8.990;2023-01-08T01:38:40;5.30;99.90
6291;DHT22;3178;48.730;8.990;2023-01-08T01:41:06;5.30;99.90
6291;DHT22;3178;48.730;8.990;2023-01-08T01:43:40;5.30;99.90
6291;DHT22;3178;48.730;8.990;2023-01-08T01:46:17;5.30;99.90
6291;DHT22;3178;48.730;8.990;2023-01-08T01:48:44;5.30;99.90
6291;DHT22;3178;48.730;8.990;2023-01-08T01:51:12;5.30;99.90
6291;DHT22;3178;48.730;8.990;2023-01-08T01:53:38;5.30;99.90
6291;DHT22;3178;48.730;8.990;2023-01-08T01:56:06;5.30;99.90
6291;DHT22;3178;48.730;8.990;2023-01-08T01:58:32;5.40;99.90
6291;DHT22;3178;48.730;8.990;2023-01-08T02:01:02;5.40;99.90
6291;DHT22;3178;48.730;8.990;2023-01-08T02:03:32;5.50;99.90
6291;DHT22;3178;48.730;8.990;2023-01-08T02:13:55;5.60;99.90
6291;DHT22;3178;48.730;8.990;2023-01-08T02:19:02;5.60;99.90
6291;DHT22;3178;48.730;8.990;2023-01-08T02:21:35;5.70;99.90
6291;DHT22;3178;48.730;8.990;2023-01-08T02:27:00;5.90;99.90
6291;DHT22;3178;48.730;8.990;2023-01-08T02:29:29;5.80;99.90
6291;DHT22;3178;48.730;8.990;2023-01-08T02:31:56;5.80;99.90
6291;DHT22;3178;48.730;8.990;2023-01-08T02:34:22;5.80;99.90
6291;DHT22;3178;48.730;8.990;2023-01-08T02:36:53;5.80;99.90
6291;DHT22;3178;48.730;8.990;2023-01-08T02:42:36;5.90;99.90
6291;DHT22;3178;48.730;8.990;2023-01-08T02:45:34;5.90;99.90
6291;DHT22;3178;48.730;8.990;2023-01-08T02:50:40;6.00;99.90
6291;DHT22;3178;48.730;8.990;2023-01-08T02:55:52;6.00;99.90
6291;DHT22;3178;48.730;8.990;2023-01-08T02:58:20;6.00;99.90
6291;DHT22;3178;48.730;8.990;2023-01-08T03:00:48;6.10;99.90
6291;DHT22;3178;48.730;8.990;2023-01-08T03:03:18;6.10;99.90
6291;DHT22;3178;48.730;8.990;2023-01-08T03:05:47;6.10;99.90
6291;DHT22;3178;48.730;8.990;2023-01-08T03:08:14;6.10;99.90
6291;DHT22;3178;48.730;8.990;2023-01-08T03:10:42;6.10;99.90
6291;DHT22;3178;48.730;8.990;2023-01-08T03:13:22;6.20;99.90
6291;DHT22;3178;48.730;8.990;2023-01-08T03:15:55;6.20;99.90
6291;DHT22;3178;48.730;8.990;2023-01-08T03:18:28;6.20;99.90
6291;DHT22;3178;48.730;8.990;2023-01-08T03:20:55;6.20;99.90
6291;DHT22;3178;48.730;8.990;2023-01-08T03:23:22;6.20;99.90
6291;DHT22;3178;48.730;8.990;2023-01-08T03:25:48;6.10;99.90
6291;DHT22;3178;48.730;8.990;2023-01-08T03:28:20;6.10;99.90
6291;DHT22;3178;48.730;8.990;2023-01-08T03:30:48;6.10;99.90
6291;DHT22;3178;48.730;8.990;2023-01-08T03:33:15;6.10;99.90
6291;DHT22;3178;48.730;8.990;2023-01-08T03:35:42;6.10;99.90
6291;DHT22;3178;48.730;8.990;2023-01-08T03:38:19;6.10;99.90
6291;DHT22;3178;48.730;8.990;2023-01-08T03:40:50;6.10;99.90
6291;DHT22;3178;48.730;8.990;2023-01-08T03:43:16;6.10;99.90
6291;DHT22;3178;48.730;8.990;2023-01-08T03:45:48;6.10;99.90
6291;DHT22;3178;48.730;8.990;2023-01-08T03:48:15;6.10;99.90
6291;DHT22;3178;48.730;8.990;2023-01-08T03:50:42;6.10;99.90
6291;DHT22;3178;48.730;8.990;2023-01-08T03:53:08;6.10;99.90
6291;DHT22;3178;48.730;8.990;2023-01-08T03:55:34;6.10;99.90
6291;DHT22;3178;48.730;8.990;2023-01-08T03:58:00;6.10;99.90
6291;DHT22;3178;48.730;8.990;2023-01-08T04:00:25;6.10;99.90
6291;DHT22;3178;48.730;8.990;2023-01-08T04:02:51;6.10;99.90
6291;DHT22;3178;48.730;8.990;2023-01-08T04:05:16;6.10;99.90
6291;DHT22;3178;48.730;8.990;2023-01-08T04:07:42;6.10;99.90
6291;DHT22;3178;48.730;8.990;2023-01-08T04:10:08;6.10;99.90
6291;DHT22;3178;48.730;8.990;2023-01-08T04:12:33;6.10;99.90
6291;DHT22;3178;48.730;8.990;2023-01-08T04:14:59;6.10;99.90
6291;DHT22;3178;48.730;8.990;2023-01-08T04:17:24;6.20;99.90
6291;DHT22;3178;48.730;8.990;2023-01-08T04:19:50;6.20;99.90
6291;DHT22;3178;48.730;8.990;2023-01-08T04:22:15;6.20;99.90
6291;DHT22;3178;48.730;8.990;2023-01-08T04:24:41;6.20;99.90
6291;DHT22;3178;48.730;8.990;2023-01-08T04:27:06;6.20;99.90
6291;DHT22;3178;48.730;8.990;2023-01-08T04:29:32;6.20;99.90
6291;DHT22;3178;48.730;8.990;2023-01-08T04:31:58;6.20;99.90
6291;DHT22;3178;48.730;8.990;2023-01-08T04:34:24;6.20;99.90
6291;DHT22;3178;48.730;8.990;2023-01-08T04:36:49;6.20;99.90
6291;DHT22;3178;48.730;8.990;2023-01-08T04:39:15;6.20;99.90
6291;DHT22;3178;48.730;8.990;2023-01-08T04:41:41;6.30;99.90
6291;DHT22;3178;48.730;8.990;2023-01-08T04:44:06;6.30;99.90
6291;DHT22;3178;48.730;8.990;2023-01-08T04:46:32;6.20;99.90
6291;DHT22;3178;48.730;8.990;2023-01-08T04:48:58;6.20;99.90
6291;DHT22;3178;48.730;8.990;2023-01-08T04:51:24;6.20;99.90
6291;DHT22;3178;48.730;8.990;2023-01-08T04:53:50;6.20;99.90
6291;DHT22;3178;48.730;8.990;2023-01-08T04:56:16;6.30;99.90
6291;DHT22;3178;48.730;8.990;2023-01-08T04:58:41;6.30;99.90
6291;DHT22;3178;48.730;8.990;2023-01-08T05:01:12;6.30;99.90
6291;DHT22;3178;48.730;8.990;2023-01-08T05:03:38;6.30;99.90
6291;DHT22;3178;48.730;8.990;2023-01-08T05:06:05;6.40;99.90
6291;DHT22;3178;48.730;8.990;2023-01-08T05:08:30;6.40;99.90
6291;DHT22;3178;48.730;8.990;2023-01-08T05:10:59;6.40;99.90
6291;DHT22;3178;48.730;8.990;2023-01-08T05:13:25;6.30;99.90
6291;DHT22;3178;48.730;8.990;2023-01-08T05:15:51;6.40;99.90
6291;DHT22;3178;48.730;8.990;2023-01-08T05:18:16;6.40;99.90
6291;DHT22;3178;48.730;8.990;2023-01-08T05:20:42;6.50;99.90
6291;DHT22;3178;48.730;8.990;2023-01-08T05:23:07;6.50;99.90
6291;DHT22;3178;48.730;8.990;2023-01-08T05:25:34;6.50;99.90
6291;DHT22;3178;48.730;8.990;2023-01-08T05:28:00;6.60;99.90
6291;DHT22;3178;48.730;8.990;2023-01-08T05:30:25;6.70;99.90
6291;DHT22;3178;48.730;8.990;2023-01-08T05:32:51;6.70;99.90
6291;DHT22;3178;48.730;8.990;2023-01-08T05:35:16;6.80;99.90
6291;DHT22;3178;48.730;8.990;2023-01-08T05:37:42;6.90;99.90
6291;DHT22;3178;48.730;8.990;2023-01-08T05:40:08;6.90;99.90
6291;DHT22;3178;48.730;8.990;2023-01-08T05:42:34;6.90;99.90
6291;DHT22;3178;48.730;8.990;2023-01-08T05:45:04;7.00;99.90
6291;DHT22;3178;48.730;8.990;2023-01-08T05:47:31;7.00;99.90
6291;DHT22;3178;48.730;8.990;2023-01-08T05:49:57;7.00;99.90
6291;DHT22;3178;48.730;8.990;2023-01-08T05:52:23;7.10;99.90
6291;DHT22;3178;48.730;8.990;2023-01-08T05:54:49;7.10;99.90
6291;DHT22;3178;48.730;8.990;2023-01-08T05:57:15;7.10;99.90
6291;DHT22;3178;48.730;8.990;2023-01-08T05:59:40;7.10;99.90
6291;DHT22;3178;48.730;8.990;2023-01-08T06:02:07;7.20;99.90
6291;DHT22;3178;48.730;8.990;2023-01-08T06:04:32;7.20;99.90
6291;DHT22;3178;48.730;8.990;2023-01-08T06:06:58;7.30;99.90
6291;DHT22;3178;48.730;8.990;2023-01-08T06:09:23;7.30;99.90
6291;DHT22;3178;48.730;8.990;2023-01-08T06:11:49;7.30;99.90
6291;DHT22;3178;48.730;8.990;2023-01-08T06:14:15;7.30;99.90
6291;DHT22;3178;48.730;8.990;2023-01-08T06:16:44;7.30;99.90
6291;DHT22;3178;48.730;8.990;2023-01-08T06:19:11;7.40;99.90
6291;DHT22;3178;48.730;8.990;2023-01-08T06:21:36;7.40;99.90
6291;DHT22;3178;48.730;8.990;2023-01-08T06:24:03;7.40;99.90
6291;DHT22;3178;48.730;8.990;2023-01-08T06:26:28;7.40;99.90
6291;DHT22;3178;48.730;8.990;2023-01-08T06:28:54;7.40;99.90
6291;DHT22;3178;48.730;8.990;2023-01-08T06:31:19;7.40;99.90
6291;DHT22;3178;48.730;8.990;2023-01-08T06:33:45;7.40;99.90
6291;DHT22;3178;48.730;8.990;2023-01-08T06:36:10;7.40;99.90
6291;DHT22;3178;48.730;8.990;2023-01-08T06:38:36;7.40;99.90
6291;DHT22;3178;48.730;8.990;2023-01-08T06:41:03;7.40;99.90
6291;DHT22;3178;48.730;8.990;2023-01-08T06:43:29;7.50;99.90
6291;DHT22;3178;48.730;8.990;2023-01-08T06:45:55;7.50;99.90
6291;DHT22;3178;48.730;8.990;2023-01-08T06:48:23;7.50;99.90
6291;DHT22;3178;48.730;8.990;2023-01-08T06:50:49;7.50;99.90
6291;DHT22;3178;48.730;8.990;2023-01-08T06:53:14;7.50;99.90
6291;DHT22;3178;48.730;8.990;2023-01-08T06:55:40;7.40;99.90
6291;DHT22;3178;48.730;8.990;2023-01-08T06:58:05;7.40;99.90
6291;DHT22;3178;48.730;8.990;2023-01-08T07:00:31;7.40;99.90
6291;DHT22;3178;48.730;8.990;2023-01-08T07:02:56;7.40;99.90
6291;DHT22;3178;48.730;8.990;2023-01-08T07:05:22;7.40;99.90
6291;DHT22;3178;48.730;8.990;2023-01-08T07:07:48;7.40;99.90
6291;DHT22;3178;48.730;8.990;2023-01-08T07:10:14;7.40;99.90
6291;DHT22;3178;48.730;8.990;2023-01-08T07:12:40;7.40;99.90
6291;DHT22;3178;48.730;8.990;2023-01-08T07:15:06;7.40;99.90
6291;DHT22;3178;48.730;8.990;2023-01-08T07:17:32;7.40;99.90
6291;DHT22;3178;48.730;8.990;2023-01-08T07:19:58;7.40;99.90
6291;DHT22;3178;48.730;8.990;2023-01-08T07:22:23;7.40;99.90
6291;DHT22;3178;48.730;8.990;2023-01-08T07:24:50;7.40;99.90
6291;DHT22;3178;48.730;8.990;2023-01-08T07:27:16;7.30;99.90
6291;DHT22;3178;48.730;8.990;2023-01-08T07:29:41;7.30;99.90
6291;DHT22;3178;48.730;8.990;2023-01-08T07:32:07;7.30;99.90
6291;DHT22;3178;48.730;8.990;2023-01-08T07:34:33;7.30;99.90
6291;DHT22;3178;48.730;8.990;2023-01-08T07:36:59;7.30;99.90
6291;DHT22;3178;48.730;8.990;2023-01-08T07:39:25;7.30;99.90
6291;DHT22;3178;48.730;8.990;2023-01-08T07:41:51;7.30;99.90
6291;DHT22;3178;48.730;8.990;2023-01-08T07:44:16;7.20;99.90
6291;DHT22;3178;48.730;8.990;2023-01-08T07:46:42;7.20;99.90
6291;DHT22;3178;48.730;8.990;2023-01-08T07:49:07;7.20;99.90
6291;DHT22;3178;48.730;8.990;2023-01-08T07:51:33;7.20;99.90
6291;DHT22;3178;48.730;8.990;2023-01-08T07:53:59;7.20;99.90
6291;DHT22;3178;48.730;8.990;2023-01-08T07:56:25;7.20;99.90
6291;DHT22;3178;48.730;8.990;2023-01-08T07:58:50;7.20;99.90
6291;DHT22;3178;48.730;8.990;2023-01-08T08:01:16;7.20;99.90
6291;DHT22;3178;48.730;8.990;2023-01-08T08:03:42;7.20;99.90
6291;DHT22;3178;48.730;8.990;2023-01-08T08:06:08;7.20;99.90
6291;DHT22;3178;48.730;8.990;2023-01-08T08:08:34;7.20;99.90
6291;DHT22;3178;48.730;8.990;2023-01-08T08:10:59;7.20;99.90
6291;DHT22;3178;48.730;8.990;2023-01-08T08:13:25;7.10;99.90
6291;DHT22;3178;48.730;8.990;2023-01-08T08:15:51;7.10;99.90
6291;DHT22;3178;48.730;8.990;2023-01-08T08:18:16;7.10;99.90
6291;DHT22;3178;48.730;8.990;2023-01-08T08:20:42;7.10;99.90
6291;DHT22;3178;48.730;8.990;2023-01-08T08:23:10;7.10;99.90
6291;DHT22;3178;48.730;8.990;2023-01-08T08:25:38;7.10;99.90
6291;DHT22;3178;48.730;8.990;2023-01-08T08:28:04;7.10;99.90
6291;DHT22;3178;48.730;8.990;2023-01-08T08:30:32;7.10;99.90
6291;DHT22;3178;48.730;8.990;2023-01-08T08:32:59;7.10;99.90
6291;DHT22;3178;48.730;8.990;2023-01-08T08:35:26;7.10;99.90
6291;DHT22;3178;48.730;8.990;2023-01-08T08:37:53;7.10;99.90
6291;DHT22;3178;48.730;8.990;2023-01-08T08:40:19;7.10;99.90
6291;DHT22;3178;48.730;8.990;2023-01-08T08:42:45;7.10;99.90
6291;DHT22;3178;48.730;8.990;2023-01-08T08:45:10;7.10;99.90
6291;DHT22;3178;48.730;8.990;2023-01-08T08:47:36;7.20;99.90
6291;DHT22;3178;48.730;8.990;2023-01-08T08:50:02;7.20;99.90
6291;DHT22;3178;48.730;8.990;2023-01-08T08:52:29;7.20;99.90
6291;DHT22;3178;48.730;8.990;2023-01-08T08:54:55;7.20;99.90
6291;DHT22;3178;48.730;8.990;2023-01-08T08:57:23;7.20;99.90
6291;DHT22;3178;48.730;8.990;2023-01-08T08:59:48;7.20;99.90
6291;DHT22;3178;48.730;8.990;2023-01-08T09:02:14;7.20;99.90
6291;DHT22;3178;48.730;8.990;2023-01-08T09:04:39;7.20;99.90
6291;DHT22;3178;48.730;8.990;2023-01-08T09:07:05;7.20;99.90
6291;DHT22;3178;48.730;8.990;2023-01-08T09:09:30;7.30;99.90
6291;DHT22;3178;48.730;8.990;2023-01-08T09:11:56;7.30;99.90
6291;DHT22;3178;48.730;8.990;2023-01-08T09:14:22;7.30;99.90
6291;DHT22;3178;48.730;8.990;2023-01-08T09:16:47;7.30;99.90
6291;DHT22;3178;48.730;8.990;2023-01-08T09:19:13;7.30;99.90
6291;DHT22;3178;48.730;8.990;2023-01-08T09:21:38;7.30;99.90
6291;DHT22;3178;48.730;8.990;2023-01-08T09:24:04;7.30;99.90
6291;DHT22;3178;48.730;8.990;2023-01-08T09:26:30;7.30;99.90
6291;DHT22;3178;48.730;8.990;2023-01-08T09:28:57;7.30;99.90
6291;DHT22;3178;48.730;8.990;2023-01-08T09:31:23;7.30;99.90
6291;DHT22;3178;48.730;8.990;2023-01-08T09:33:49;7.40;99.90
6291;DHT22;3178;48.730;8.990;2023-01-08T09:36:14;7.40;99.90
6291;DHT22;3178;48.730;8.990;2023-01-08T09:38:40;7.40;99.90
6291;DHT22;3178;48.730;8.990;2023-01-08T09:41:24;7.40;99.90
6291;DHT22;3178;48.730;8.990;2023-01-08T09:43:52;7.40;99.90
6291;DHT22;3178;48.730;8.990;2023-01-08T09:46:21;7.40;99.90
6291;DHT22;3178;48.730;8.990;2023-01-08T09:48:48;7.50;99.90
6291;DHT22;3178;48.730;8.990;2023-01-08T09:51:17;7.50;99.90
6291;DHT22;3178;48.730;8.990;2023-01-08T09:53:44;7.50;99.90
6291;DHT22;3178;48.730;8.990;2023-01-08T09:56:13;7.50;99.90
6291;DHT22;3178;48.730;8.990;2023-01-08T10:01:16;7.50;99.90
6291;DHT22;3178;48.730;8.990;2023-01-08T10:03:50;7.50;99.90
6291;DHT22;3178;48.730;8.990;2023-01-08T10:06:17;7.60;99.90
6291;DHT22;3178;48.730;8.990;2023-01-08T10:08:44;7.60;99.90
6291;DHT22;3178;48.730;8.990;2023-01-08T10:11:11;7.60;99.90
6291;DHT22;3178;48.730;8.990;2023-01-08T10:13:38;7.60;99.90
6291;DHT22;3178;48.730;8.990;2023-01-08T10:16:07;7.60;99.90
6291;DHT22;3178;48.730;8.990;2023-01-08T10:18:34;7.60;99.90
6291;DHT22;3178;48.730;8.990;2023-01-08T10:20:59;7.60;99.90
6291;DHT22;3178;48.730;8.990;2023-01-08T10:23:25;7.60;99.90
6291;DHT22;3178;48.730;8.990;2023-01-08T10:25:59;7.60;99.90
6291;DHT22;3178;48.730;8.990;2023-01-08T10:28:27;7.60;99.90
6291;DHT22;3178;48.730;8.990;2023-01-08T10:30:57;7.60;99.90
6291;DHT22;3178;48.730;8.990;2023-01-08T10:33:27;7.70;99.90
6291;DHT22;3178;48.730;8.990;2023-01-08T10:35:59;7.70;99.90
6291;DHT22;3178;48.730;8.990;2023-01-08T10:38:51;7.70;99.90
6291;DHT22;3178;48.730;8.990;2023-01-08T10:41:19;7.70;99.90
6291;DHT22;3178;48.730;8.990;2023-01-08T10:44:01;7.70;99.90
6291;DHT22;3178;48.730;8.990;2023-01-08T10:46:36;7.70;99.90
6291;DHT22;3178;48.730;8.990;2023-01-08T10:49:11;7.80;99.90
6291;DHT22;3178;48.730;8.990;2023-01-08T10:51:48;7.80;99.90
6291;DHT22;3178;48.730;8.990;2023-01-08T10:54:25;7.80;99.90
6291;DHT22;3178;48.730;8.990;2023-01-08T10:56:52;7.80;99.90
6291;DHT22;3178;48.730;8.990;2023-01-08T10:59:22;7.90;99.90
6291;DHT22;3178;48.730;8.990;2023-01-08T11:01:50;7.90;99.90
6291;DHT22;3178;48.730;8.990;2023-01-08T11:04:28;8.10;99.90
6291;DHT22;3178;48.730;8.990;2023-01-08T11:06:54;8.10;99.90
6291;DHT22;3178;48.730;8.990;2023-01-08T11:09:27;8.20;99.90
6291;DHT22;3178;48.730;8.990;2023-01-08T11:11:54;8.20;99.90
6291;DHT22;3178;48.730;8.990;2023-01-08T11:14:32;8.30;99.90
6291;DHT22;3178;48.730;8.990;2023-01-08T11:17:09;8.20;99.90
6291;DHT22;3178;48.730;8.990;2023-01-08T11:19:35;8.30;99.90
6291;DHT22;3178;48.730;8.990;2023-01-08T11:22:16;8.30;99.90
6291;DHT22;3178;48.730;8.990;2023-01-08T11:24:42;8.30;99.90
6291;DHT22;3178;48.730;8.990;2023-01-08T11:27:11;8.30;99.90
6291;DHT22;3178;48.730;8.990;2023-01-08T11:30:02;8.30;99.90
6291;DHT22;3178;48.730;8.990;2023-01-08T11:33:08;8.30;99.90
6291;DHT22;3178;48.730;8.990;2023-01-08T11:38:00;8.30;99.90
6291;DHT22;3178;48.730;8.990;2023-01-08T11:40:49;8.40;99.90
6291;DHT22;3178;48.730;8.990;2023-01-08T11:43:35;8.30;99.90
6291;DHT22;3178;48.730;8.990;2023-01-08T12:02:49;8.30;99.90
6291;DHT22;3178;48.730;8.990;2023-01-08T12:05:41;8.40;99.90
6291;DHT22;3178;48.730;8.990;2023-01-08T12:16:49;8.30;99.90
6291;DHT22;3178;48.730;8.990;2023-01-08T12:22:17;8.40;99.90
6291;DHT22;3178;48.730;8.990;2023-01-08T12:25:27;8.40;99.90
6291;DHT22;3178;48.730;8.990;2023-01-08T12:33:34;8.50;99.90
6291;DHT22;3178;48.730;8.990;2023-01-08T12:36:05;8.50;99.90
6291;DHT22;3178;48.730;8.990;2023-01-08T12:38:39;8.50;99.90
6291;DHT22;3178;48.730;8.990;2023-01-08T12:41:12;8.60;99.90
6291;DHT22;3178;48.730;8.990;2023-01-08T12:43:52;8.60;99.90
6291;DHT22;3178;48.730;8.990;2023-01-08T12:46:21;8.70;99.90
6291;DHT22;3178;48.730;8.990;2023-01-08T12:48:48;8.60;99.90
6291;DHT22;3178;48.730;8.990;2023-01-08T12:57:04;8.60;99.90
6291;DHT22;3178;48.730;8.990;2023-01-08T12:59:48;8.60;99.90
6291;DHT22;3178;48.730;8.990;2023-01-08T13:07:46;8.60;99.90
6291;DHT22;3178;48.730;8.990;2023-01-08T13:12:57;8.60;99.90
6291;DHT22;3178;48.730;8.990;2023-01-08T13:15:27;8.60;99.90
6291;DHT22;3178;48.730;8.990;2023-01-08T13:18:03;8.60;99.90
6291;DHT22;3178;48.730;8.990;2023-01-08T13:20:30;8.60;99.90
6291;DHT22;3178;48.730;8.990;2023-01-08T13:23:04;8.70;99.90
6291;DHT22;3178;48.730;8.990;2023-01-08T13:25:37;8.60;99.90
6291;DHT22;3178;48.730;8.990;2023-01-08T13:28:28;8.60;99.90
6291;DHT22;3178;48.730;8.990;2023-01-08T13:30:54;8.60;99.90
6291;DHT22;3178;48.730;8.990;2023-01-08T13:36:17;8.70;99.90
6291;DHT22;3178;48.730;8.990;2023-01-08T13:38:45;8.60;99.90
6291;DHT22;3178;48.730;8.990;2023-01-08T13:44:04;8.60;99.90
6291;DHT22;3178;48.730;8.990;2023-01-08T13:46:36;8.70;99.90
6291;DHT22;3178;48.730;8.990;2023-01-08T13:49:05;8.70;99.90
6291;DHT22;3178;48.730;8.990;2023-01-08T13:51:40;8.80;99.90
6291;DHT22;3178;48.730;8.990;2023-01-08T13:56:51;8.90;99.90
6291;DHT22;3178;48.730;8.990;2023-01-08T13:59:30;9.10;99.90
6291;DHT22;3178;48.730;8.990;2023-01-08T14:01:58;9.40;99.90
6291;DHT22;3178;48.730;8.990;2023-01-08T14:04:25;9.60;99.90
6291;DHT22;3178;48.730;8.990;2023-01-08T14:06:51;9.70;99.90
6291;DHT22;3178;48.730;8.990;2023-01-08T14:09:22;9.80;99.90
6291;DHT22;3178;48.730;8.990;2023-01-08T14:11:53;9.90;99.90
6291;DHT22;3178;48.730;8.990;2023-01-08T14:14:22;10.30;99.90
6291;DHT22;3178;48.730;8.990;2023-01-08T14:16:50;10.50;99.90
6291;DHT22;3178;48.730;8.990;2023-01-08T14:19:21;10.50;99.90
6291;DHT22;3178;48.730;8.990;2023-01-08T14:21:49;10.20;99.90
6291;DHT22;3178;48.730;8.990;2023-01-08T14:24:16;9.90;99.90
6291;DHT22;3178;48.730;8.990;2023-01-08T14:26:42;9.80;99.90
6291;DHT22;3178;48.730;8.990;2023-01-08T14:29:17;9.70;99.90
6291;DHT22;3178;48.730;8.990;2023-01-08T14:31:46;9.60;99.90
6291;DHT22;3178;48.730;8.990;2023-01-08T14:34:12;9.40;99.90
6291;DHT22;3178;48.730;8.990;2023-01-08T14:36:40;9.30;99.90
6291;DHT22;3178;48.730;8.990;2023-01-08T14:39:32;9.30;99.90
6291;DHT22;3178;48.730;8.990;2023-01-08T14:42:17;9.20;99.90
6291;DHT22;3178;48.730;8.990;2023-01-08T14:45:25;9.10;99.90
6291;DHT22;3178;48.730;8.990;2023-01-08T14:48:10;9.10;99.90
6291;DHT22;3178;48.730;8.990;2023-01-08T14:50:40;9.00;99.90
6291;DHT22;3178;48.730;8.990;2023-01-08T14:53:26;9.00;99.90
6291;DHT22;3178;48.730;8.990;2023-01-08T14:55:55;8.90;99.90
6291;DHT22;3178;48.730;8.990;2023-01-08T14:58:23;8.90;99.90
6291;DHT22;3178;48.730;8.990;2023-01-08T15:01:01;8.90;99.90
6291;DHT22;3178;48.730;8.990;2023-01-08T15:03:36;8.90;99.90
6291;DHT22;3178;48.730;8.990;2023-01-08T15:06:02;8.90;99.90
6291;DHT22;3178;48.730;8.990;2023-01-08T15:08:37;8.90;99.90
6291;DHT22;3178;48.730;8.990;2023-01-08T15:13:45;8.90;99.90
6291;DHT22;3178;48.730;8.990;2023-01-08T15:18:44;8.80;99.90
6291;DHT22;3178;48.730;8.990;2023-01-08T15:21:18;8.80;99.90
6291;DHT22;3178;48.730;8.990;2023-01-08T15:23:50;8.80;99.90
6291;DHT22;3178;48.730;8.990;2023-01-08T15:26:19;8.70;99.90
6291;DHT22;3178;48.730;8.990;2023-01-08T15:28:54;8.70;99.90
6291;DHT22;3178;48.730;8.990;2023-01-08T15:31:28;8.60;99.90
6291;DHT22;3178;48.730;8.990;2023-01-08T15:33:55;8.50;99.90
6291;DHT22;3178;48.730;8.990;2023-01-08T15:36:20;8.50;99.90
6291;DHT22;3178;48.730;8.990;2023-01-08T15:38:47;8.50;99.90
6291;DHT22;3178;48.730;8.990;2023-01-08T15:41:16;8.50;99.90
6291;DHT22;3178;48.730;8.990;2023-01-08T15:44:01;8.40;99.90
6291;DHT22;3178;48.730;8.990;2023-01-08T15:46:27;8.50;99.90
6291;DHT22;3178;48.730;8.990;2023-01-08T15:48:52;8.50;99.90
6291;DHT22;3178;48.730;8.990;2023-01-08T15:51:18;8.50;99.90
6291;DHT22;3178;48.730;8.990;2023-01-08T15:53:43;8.50;99.90
6291;DHT22;3178;48.730;8.990;2023-01-08T15:56:09;8.50;99.90
6291;DHT22;3178;48.730;8.990;2023-01-08T15:58:34;8.50;99.90
6291;DHT22;3178;48.730;8.990;2023-01-08T16:01:00;8.50;99.90
6291;DHT22;3178;48.730;8.990;2023-01-08T16:03:25;8.50;99.90
6291;DHT22;3178;48.730;8.990;2023-01-08T16:05:51;8.50;99.90
6291;DHT22;3178;48.730;8.990;2023-01-08T16:08:17;8.50;99.90
6291;DHT22;3178;48.730;8.990;2023-01-08T16:10:42;8.50;99.90
6291;DHT22;3178;48.730;8.990;2023-01-08T16:13:08;8.50;99.90
6291;DHT22;3178;48.730;8.990;2023-01-08T16:15:33;8.50;99.90
6291;DHT22;3178;48.730;8.990;2023-01-08T16:17:59;8.50;99.90
6291;DHT22;3178;48.730;8.990;2023-01-08T16:20:25;8.50;99.90
6291;DHT22;3178;48.730;8.990;2023-01-08T16:22:50;8.60;99.90
6291;DHT22;3178;48.730;8.990;2023-01-08T16:25:16;8.50;99.90
6291;DHT22;3178;48.730;8.990;2023-01-08T16:27:42;8.50;99.90
6291;DHT22;3178;48.730;8.990;2023-01-08T16:30:11;8.50;99.90
6291;DHT22;3178;48.730;8.990;2023-01-08T16:32:39;8.50;99.90
6291;DHT22;3178;48.730;8.990;2023-01-08T16:35:04;8.50;99.90
6291;DHT22;3178;48.730;8.990;2023-01-08T16:37:30;8.50;99.90
6291;DHT22;3178;48.730;8.990;2023-01-08T16:39:56;8.50;99.90
6291;DHT22;3178;48.730;8.990;2023-01-08T16:42:21;8.50;99.90
6291;DHT22;3178;48.730;8.990;2023-01-08T16:44:47;8.50;99.90
6291;DHT22;3178;48.730;8.990;2023-01-08T16:47:12;8.50;99.90
6291;DHT22;3178;48.730;8.990;2023-01-08T16:49:38;8.50;99.90
6291;DHT22;3178;48.730;8.990;2023-01-08T16:52:04;8.50;99.90
6291;DHT22;3178;48.730;8.990;2023-01-08T16:54:29;8.50;99.90
6291;DHT22;3178;48.730;8.990;2023-01-08T16:56:55;8.50;99.90
6291;DHT22;3178;48.730;8.990;2023-01-08T16:59:20;8.50;99.90
6291;DHT22;3178;48.730;8.990;2023-01-08T17:01:46;8.50;99.90
6291;DHT22;3178;48.730;8.990;2023-01-08T17:04:12;8.60;99.90
6291;DHT22;3178;48.730;8.990;2023-01-08T17:06:37;8.60;99.90
6291;DHT22;3178;48.730;8.990;2023-01-08T17:09:03;8.60;99.90
6291;DHT22;3178;48.730;8.990;2023-01-08T17:11:29;8.60;99.90
6291;DHT22;3178;48.730;8.990;2023-01-08T17:13:56;8.60;99.90
6291;DHT22;3178;48.730;8.990;2023-01-08T17:16:22;8.60;99.90
6291;DHT22;3178;48.730;8.990;2023-01-08T17:18:48;8.60;99.90
6291;DHT22;3178;48.730;8.990;2023-01-08T17:21:14;8.60;99.90
6291;DHT22;3178;48.730;8.990;2023-01-08T17:23:40;8.60;99.90
6291;DHT22;3178;48.730;8.990;2023-01-08T17:26:08;8.60;99.90
6291;DHT22;3178;48.730;8.990;2023-01-08T17:28:34;8.60;99.90
6291;DHT22;3178;48.730;8.990;2023-01-08T17:31:11;8.60;99.90
6291;DHT22;3178;48.730;8.990;2023-01-08T17:33:37;8.60;99.90
6291;DHT22;3178;48.730;8.990;2023-01-08T17:36:33;8.60;99.90
6291;DHT22;3178;48.730;8.990;2023-01-08T17:38:58;8.50;99.90
6291;DHT22;3178;48.730;8.990;2023-01-08T17:41:24;8.50;99.90
6291;DHT22;3178;48.730;8.990;2023-01-08T17:44:11;8.50;99.90
6291;DHT22;3178;48.730;8.990;2023-01-08T17:46:39;8.50;99.90
6291;DHT22;3178;48.730;8.990;2023-01-08T17:49:08;8.50;99.90
6291;DHT22;3178;48.730;8.990;2023-01-08T17:51:35;8.50;99.90
6291;DHT22;3178;48.730;8.990;2023-01-08T17:54:03;8.50;99.90